Stations météo

Publicité
Apt, France (7657): Température de l'air & dewpoint: 21.10.2020 18:00:00 - 27.10.2020 18:00:00 (CET)Apt, France (7657): Vitesse du vent & gusts: 21.10.2020 18:00:00 - 27.10.2020 18:00:00 (CET)Apt, France (7657): Direction du vent: 21.10.2020 18:00:00 - 27.10.2020 18:00:00 (CET)Apt, France (7657): Quantités de précipitations: 21.10.2020 18:00:00 - 27.10.2020 18:00:00 (CET)
Date & Time tt [°C] td [°C] ff [km/h] ff [knt] fx [km/h] fx [knt] dd rr [mm]
27.10.2020 18:00:00 6,9 1,6 10 5 21 11 WNW 0,0
27.10.2020 17:00:00 9,5 2,3 10 5 32 17 NW 0,0
27.10.2020 16:00:00 10,7 1,0 17 9 32 17 NW 0,0
27.10.2020 15:00:00 10,7 1,5 14 8 36 20 NW 0,0
27.10.2020 14:00:00 11,1 1,6 22 12 40 21 NW 0,0
27.10.2020 13:00:00 9,4 0,8 21 12 46 25 NW 0,0
27.10.2020 12:00:00 9,4 1,5 23 13 44 24 NNW 0,0
27.10.2020 11:00:00 9,1 1,5 24 13 45 24 NW 0,0
27.10.2020 10:00:00 8,1 1,7 29 15 50 27 NNW 0,0
27.10.2020 09:00:00 7,1 1,0 27 15 53 29 NNW 0,0
27.10.2020 08:00:00 5,7 1,0 25 14 39 21 NW 0,0
27.10.2020 07:00:00 3,8 0,7 10 6 28 15 W 0,0
27.10.2020 06:00:00 4,7 1,0 14 8 28 15 W 0,0
27.10.2020 05:00:00 5,2 0,9 15 8 33 18 WNW 0,0
27.10.2020 04:00:00 5,0 0,9 16 9 36 19 NW 0,0
27.10.2020 03:00:00 4,9 1,4 13 7 35 19 WNW 0,0
27.10.2020 02:00:00 5,2 1,7 19 11 41 22 NW 0,0
27.10.2020 01:00:00 5,3 1,8 18 10 35 19 NW 0,0
27.10.2020 00:00:00 5,5 1,2 12 6 37 20 WNW 0,0
26.10.2020 23:00:00 5,7 0,8 17 9 31 17 WNW 0,0
26.10.2020 22:00:00 5,6 1,3 22 12 39 21 NNW 0,0
26.10.2020 21:00:00 6,1 1,2 13 7 31 17 WNW 0,0
26.10.2020 20:00:00 6,3 0,6 19 10 37 20 NW 0,0
26.10.2020 19:00:00 6,4 0,7 18 10 38 21 WNW 0,0
26.10.2020 18:00:00 6,6 1,1 16 9 42 23 WNW 0,0
26.10.2020 17:00:00 8,3 1,2 23 13 50 27 NW 0,0
26.10.2020 16:00:00 9,0 2,5 27 15 53 28 NNW 0,0
26.10.2020 15:00:00 8,8 3,4 26 14 44 24 NW 0,0
26.10.2020 14:00:00 9,0 4,8 24 13 39 21 NW 0,0
26.10.2020 13:00:00 8,0 6,0 17 9 31 17 NW 0,0
26.10.2020 12:00:00 7,6 6,4 16 8 31 17 NW 0,0
26.10.2020 11:00:00 8,2 7,4 4 2 17 9 NW 0,2
26.10.2020 10:00:00 8,5 7,9 9 5 22 12 NNW 0,0
26.10.2020 09:00:00 8,4 7,8 8 4 16 9 NW 0,0
26.10.2020 08:00:00 8,6 8,2 8 5 19 10 NW 0,0
26.10.2020 07:00:00 8,4 7,8 6 3 19 11 NW 0,0
26.10.2020 06:00:00 9,0 8,4 12 6 36 20 W 1,6
26.10.2020 05:00:00 10,0 9,5 16 9 47 25 SW 1,0
26.10.2020 04:00:00 11,3 9,7 19 10 52 28 S 2,2
26.10.2020 03:00:00 11,3 10,5 30 16 53 29 SE 1,2
26.10.2020 02:00:00 11,3 9,9 24 13 51 27 SE 0,0
26.10.2020 01:00:00 11,4 10,0 28 15 47 26 SE 0,0
26.10.2020 00:00:00 11,2 10,1 23 12 51 27 SE 0,0
25.10.2020 23:00:00 11,3 9,9 29 16 48 26 SE 0,0
25.10.2020 22:00:00 11,2 9,8 28 15 51 28 ESE 0,0
25.10.2020 21:00:00 11,2 9,5 29 16 55 30 SE 0,0
25.10.2020 20:00:00 11,4 9,8 26 14 50 27 ESE 0,0
25.10.2020 19:00:00 11,8 10,0 26 14 48 26 SE 0,0
25.10.2020 18:00:00 12,2 10,1 23 13 50 27 ESE 0,0
25.10.2020 17:00:00 12,5 10,0 26 14 48 26 ESE 0,0
25.10.2020 16:00:00 12,8 10,3 29 15 49 26 ESE 0,0
25.10.2020 15:00:00 12,9 10,3 27 15 47 25 ESE 0,0
25.10.2020 14:00:00 12,8 10,0 24 13 42 23 SE 0,0
25.10.2020 13:00:00 12,6 10,1 22 12 43 23 SE 0,0
25.10.2020 12:00:00 11,8 9,5 21 11 40 22 SE 0,0
25.10.2020 11:00:00 10,6 8,7 24 13 45 24 SE 0,0
25.10.2020 10:00:00 10,0 7,4 22 12 35 19 SE 0,0
25.10.2020 09:00:00 9,8 6,7 19 10 30 16 SE 0,0
25.10.2020 08:00:00 7,4 6,3 10 5 21 12 SE 0,0
25.10.2020 07:00:00 5,7 5,6 13 7 22 12 SE 0,0
25.10.2020 06:00:00 0,5 0,2 2 1 5 3 SSW 0,0
25.10.2020 05:00:00 0,1 -0,3 0 0 5 3 N 0,0
25.10.2020 04:00:00 1,6 1,5 2 1 6 3 SSE 0,0
25.10.2020 03:00:00 0,8 0,2 0 0 6 4 N 0,0
25.10.2020 02:00:00 1,2 0,9 2 1 5 3 SW 0,0
25.10.2020 01:00:00 - - - - - - - -
25.10.2020 00:00:00 1,9 1,3 0 0 7 4 N 0,0
24.10.2020 23:00:00 3,1 2,8 4 2 8 4 W 0,0
24.10.2020 22:00:00 4,4 4,0 4 2 12 6 N 0,0
24.10.2020 21:00:00 6,1 5,8 3 1 18 10 N 0,0
24.10.2020 20:00:00 6,2 5,5 11 6 17 9 W 0,0
24.10.2020 19:00:00 7,0 5,5 3 2 11 6 NNW 0,0
24.10.2020 18:00:00 9,3 7,4 3 2 17 9 WNW 0,0
24.10.2020 17:00:00 12,1 7,8 8 5 25 13 WNW 0,0
24.10.2020 16:00:00 13,4 8,5 16 9 34 18 W 0,0
24.10.2020 15:00:00 15,2 7,0 19 11 41 22 NW 0,0
24.10.2020 14:00:00 15,6 7,1 23 12 - - NW 0,0
24.10.2020 13:00:00 15,0 6,5 20 11 35 19 NW 0,0
24.10.2020 12:00:00 14,6 7,6 19 10 40 21 NNW 0,0
24.10.2020 11:00:00 13,4 7,4 26 14 40 21 NNW 0,0
24.10.2020 10:00:00 12,2 7,3 21 11 34 19 NNW 0,0
24.10.2020 09:00:00 10,9 7,4 18 10 36 19 NNW 0,0
24.10.2020 08:00:00 8,7 7,0 8 5 16 8 NW 0,0
24.10.2020 07:00:00 7,5 6,0 7 4 26 14 W 0,0
24.10.2020 06:00:00 8,0 7,2 14 7 26 14 NW 0,0
24.10.2020 05:00:00 7,1 6,8 9 5 22 12 NNW 0,0
24.10.2020 04:00:00 6,6 6,0 8 4 18 10 NNW 0,0
24.10.2020 03:00:00 7,2 7,1 7 4 15 8 WNW 0,0
24.10.2020 02:00:00 5,9 5,8 10 6 14 8 NNW 0,0
24.10.2020 01:00:00 5,4 5,1 3 2 9 5 N 0,0
24.10.2020 00:00:00 6,0 5,7 5 3 9 5 W 0,0
23.10.2020 23:00:00 7,1 6,7 0 0 10 5 N 0,0
23.10.2020 22:00:00 8,3 7,9 5 3 16 9 W 0,0
23.10.2020 21:00:00 8,8 8,0 7 4 19 10 W 0,2
23.10.2020 20:00:00 9,4 9,1 6 3 13 7 SW 3,8
23.10.2020 19:00:00 9,8 8,6 11 6 39 21 NW 5,9
23.10.2020 18:00:00 12,6 12,4 11 6 26 14 SE 0,4
23.10.2020 17:00:00 12,7 12,5 13 7 24 13 ESE 0,0
23.10.2020 16:00:00 12,6 12,4 13 7 29 16 SE 0,2
23.10.2020 15:00:00 12,3 12,0 14 8 31 17 SE 0,6
23.10.2020 14:00:00 12,2 11,9 15 8 35 19 SE 1,4
23.10.2020 13:00:00 12,2 12,0 11 6 25 14 SE 1,4
23.10.2020 12:00:00 12,0 11,8 11 6 29 15 SE 3,4
23.10.2020 11:00:00 11,8 11,6 13 7 27 14 SE 5,2
23.10.2020 10:00:00 11,7 11,4 12 7 30 16 SSE 3,8
23.10.2020 09:00:00 11,6 11,3 15 8 29 16 SE 5,8
23.10.2020 08:00:00 11,4 11,1 10 6 21 12 SE 4,8
23.10.2020 07:00:00 11,2 10,9 13 7 27 14 SSE 4,0
23.10.2020 06:00:00 10,9 10,6 11 6 26 14 SSE 1,8
23.10.2020 05:00:00 10,8 10,5 15 8 26 14 ESE 4,6
23.10.2020 04:00:00 10,8 10,2 12 6 21 11 SE 4,8
23.10.2020 03:00:00 11,0 10,1 8 5 22 12 S 2,2
23.10.2020 02:00:00 11,0 9,6 10 5 18 10 SE 1,0
23.10.2020 01:00:00 11,2 9,8 9 5 19 11 SE 0,6
23.10.2020 00:00:00 11,7 9,9 10 5 22 12 SSE 0,0
22.10.2020 23:00:00 11,5 10,1 9 5 19 10 SE 0,6
22.10.2020 22:00:00 12,4 9,4 10 6 28 15 SE 0,4
22.10.2020 21:00:00 13,0 8,5 11 6 22 12 ESE 0,0
22.10.2020 20:00:00 13,3 8,4 15 8 34 18 SE 0,0
22.10.2020 19:00:00 13,4 8,9 15 8 31 17 SE 0,0
22.10.2020 18:00:00 13,5 9,0 16 9 36 19 SSE 0,0
22.10.2020 17:00:00 13,0 10,0 16 8 27 15 SE 0,0
22.10.2020 16:00:00 13,1 10,5 14 7 23 12 SE 0,0
22.10.2020 15:00:00 13,2 10,6 11 6 25 14 SE 0,0
22.10.2020 14:00:00 12,7 10,6 12 6 21 11 SE 0,0
22.10.2020 13:00:00 12,5 11,1 8 4 19 11 SSE 0,6
22.10.2020 12:00:00 12,4 10,6 11 6 24 13 SSE 0,2
22.10.2020 11:00:00 11,8 10,4 14 8 25 13 SE 0,4
22.10.2020 10:00:00 11,4 10,1 12 7 23 13 SE 0,8
22.10.2020 09:00:00 11,4 10,0 14 7 30 16 SE 0,8
22.10.2020 08:00:00 11,6 9,2 14 8 28 15 ESE 0,2
22.10.2020 07:00:00 12,6 7,5 16 9 30 16 SE 0,0
22.10.2020 06:00:00 12,5 7,4 17 9 39 21 SSE 0,0
22.10.2020 05:00:00 12,6 7,3 19 10 35 19 SE 0,0
22.10.2020 04:00:00 12,5 7,6 13 7 34 18 ESE 0,0
22.10.2020 03:00:00 12,8 7,2 18 10 34 19 SE 0,0
22.10.2020 02:00:00 12,3 7,0 13 7 23 12 SE 0,0
22.10.2020 01:00:00 12,4 6,9 12 7 34 18 E 0,0
22.10.2020 00:00:00 12,0 6,9 13 7 29 16 ENE 0,0
21.10.2020 23:00:00 11,9 6,8 17 9 29 16 E 0,0
21.10.2020 22:00:00 12,2 6,9 18 10 39 21 ESE 0,0
21.10.2020 21:00:00 13,1 7,1 24 13 50 27 SE 0,0
21.10.2020 20:00:00 13,3 6,6 23 12 46 25 SE 0,0
21.10.2020 19:00:00 13,5 6,8 23 12 45 25 SE 0,0
21.10.2020 18:00:00 13,6 7,1 29 16 49 27 SE 0,0

tt = Température de l'air
td = dewpoint
ff = Vitesse du vent
fx = gusts
dd = Direction du vent
rr = Quantités de précipitations

stations d'obs. à proximité